createdAt,value
2019-05-17T00:01:53.249Z,99.90
2019-05-17T00:04:30.425Z,99.90
2019-05-17T00:07:07.593Z,99.90
2019-05-17T00:09:44.743Z,99.90
2019-05-17T00:12:21.815Z,99.90
2019-05-17T00:14:58.962Z,99.90
2019-05-17T00:17:37.708Z,99.90
2019-05-17T00:20:17.066Z,99.90
2019-05-17T00:22:53.538Z,99.90
2019-05-17T00:25:30.707Z,99.90
2019-05-17T00:28:07.815Z,99.90
2019-05-17T00:30:46.501Z,99.90
2019-05-17T00:33:23.655Z,99.90
2019-05-17T00:36:00.834Z,99.90
2019-05-17T00:38:47.557Z,99.90
2019-05-17T00:41:17.629Z,99.90
2019-05-17T00:43:56.831Z,99.90
2019-05-17T00:46:33.600Z,99.90
2019-05-17T00:49:10.751Z,99.90
2019-05-17T00:51:47.842Z,99.90
2019-05-17T00:54:26.955Z,99.90
2019-05-17T00:57:03.734Z,99.90
2019-05-17T00:59:40.864Z,99.90
2019-05-17T01:02:17.981Z,99.90
2019-05-17T01:04:56.868Z,99.90
2019-05-17T01:07:33.973Z,99.90
2019-05-17T01:10:11.103Z,99.90
2019-05-17T01:12:48.272Z,99.90
2019-05-17T01:15:27.262Z,99.90
2019-05-17T01:18:04.088Z,99.90
2019-05-17T01:20:41.205Z,99.90
2019-05-17T01:23:18.337Z,99.90
2019-05-17T01:25:56.673Z,99.90
2019-05-17T01:28:36.243Z,99.90
2019-05-17T01:31:13.356Z,99.90
2019-05-17T01:33:50.425Z,99.90
2019-05-17T01:36:27.803Z,99.90
2019-05-17T01:39:17.084Z,99.90
2019-05-17T01:41:44.158Z,99.90
2019-05-17T01:44:21.302Z,99.90
2019-05-17T01:46:58.587Z,99.90
2019-05-17T01:49:36.308Z,99.90
2019-05-17T01:52:13.507Z,99.90
2019-05-17T01:54:50.667Z,99.90
2019-05-17T01:57:27.878Z,99.90
2019-05-17T02:00:10.390Z,99.90
2019-05-17T02:02:51.802Z,99.90
2019-05-17T02:05:28.951Z,99.90
2019-05-17T02:08:06.896Z,99.90
2019-05-17T02:10:44.127Z,99.90
2019-05-17T02:13:21.699Z,99.90
2019-05-17T02:15:58.866Z,99.90
2019-05-17T02:18:37.205Z,99.90
2019-05-17T02:21:16.872Z,99.90
2019-05-17T02:23:53.580Z,99.90
2019-05-17T02:26:31.187Z,99.90
2019-05-17T02:29:08.506Z,99.90
2019-05-17T02:31:45.843Z,99.90
2019-05-17T02:34:23.306Z,99.90
2019-05-17T02:37:02.958Z,99.90
2019-05-17T02:39:53.806Z,99.90
2019-05-17T02:42:17.970Z,99.90
2019-05-17T02:44:55.091Z,99.90
2019-05-17T02:47:33.700Z,99.90
2019-05-17T02:50:12.836Z,99.90
2019-05-17T02:52:52.700Z,99.90
2019-05-17T02:55:28.780Z,99.90
2019-05-17T02:58:06.141Z,99.90
2019-05-17T03:00:44.329Z,99.90
2019-05-17T03:03:23.681Z,99.90
2019-05-17T03:06:02.986Z,99.90
2019-05-17T03:08:42.749Z,99.90
2019-05-17T03:11:18.576Z,99.90
2019-05-17T03:13:56.103Z,99.90
2019-05-17T03:16:33.924Z,99.90
2019-05-17T03:19:13.049Z,99.90
2019-05-17T03:21:52.898Z,99.90
2019-05-17T03:24:28.762Z,99.90
2019-05-17T03:27:05.851Z,99.90
2019-05-17T03:29:42.999Z,99.90
2019-05-17T03:32:25.897Z,99.90
2019-05-17T03:34:58.895Z,99.90
2019-05-17T03:37:37.974Z,99.90
2019-05-17T03:40:35.116Z,99.90
2019-05-17T03:42:54.010Z,99.90
2019-05-17T03:45:33.952Z,99.90
2019-05-17T03:48:12.715Z,99.90
2019-05-17T03:50:48.782Z,99.90
2019-05-17T03:53:25.852Z,99.90
2019-05-17T03:56:03.280Z,99.90
2019-05-17T03:58:43.052Z,99.90
2019-05-17T04:01:19.115Z,99.90
2019-05-17T04:03:56.283Z,99.90
2019-05-17T04:06:33.451Z,99.90
2019-05-17T04:09:13.455Z,99.90
2019-05-17T04:11:49.594Z,99.90
2019-05-17T04:14:26.677Z,99.90
2019-05-17T04:17:03.887Z,99.90
2019-05-17T04:19:42.561Z,99.90
2019-05-17T04:22:19.855Z,99.90
2019-05-17T04:24:56.993Z,99.90
2019-05-17T04:27:34.257Z,99.90
2019-05-17T04:30:12.593Z,99.90
2019-05-17T04:32:52.744Z,99.90
2019-05-17T04:35:32.793Z,99.90
2019-05-17T04:38:08.816Z,99.90
2019-05-17T04:40:45.988Z,99.90
2019-05-17T04:43:23.391Z,99.90
2019-05-17T04:46:02.831Z,99.90
2019-05-17T04:48:39.559Z,99.90
2019-05-17T04:51:17.221Z,99.90
2019-05-17T04:53:57.777Z,99.90
2019-05-17T04:56:36.677Z,99.90
2019-05-17T04:59:14.217Z,99.90
2019-05-17T05:01:53.661Z,99.90
2019-05-17T05:04:33.108Z,99.90
2019-05-17T05:07:09.039Z,99.90
2019-05-17T05:09:46.270Z,99.90
2019-05-17T05:12:23.339Z,99.90
2019-05-17T05:15:03.251Z,99.90
2019-05-17T05:17:42.215Z,99.90
2019-05-17T05:20:18.014Z,99.90
2019-05-17T05:22:55.181Z,99.90
2019-05-17T05:25:32.441Z,99.90
2019-05-17T05:28:11.393Z,99.90
2019-05-17T05:30:48.309Z,99.90
2019-05-17T05:33:25.419Z,99.90
2019-05-17T05:36:02.624Z,99.90
2019-05-17T05:38:42.068Z,99.90
2019-05-17T05:41:18.604Z,99.90
2019-05-17T05:43:55.727Z,99.90
2019-05-17T05:46:32.910Z,99.90
2019-05-17T05:49:12.203Z,99.90
2019-05-17T05:51:48.890Z,99.90
2019-05-17T05:54:26.047Z,99.90
2019-05-17T05:57:03.157Z,99.90
2019-05-17T05:59:42.346Z,99.90
2019-05-17T06:02:21.675Z,99.90
2019-05-17T06:04:57.821Z,99.90
2019-05-17T06:07:34.950Z,99.90
2019-05-17T06:10:13.077Z,99.90
2019-05-17T06:12:51.771Z,99.90
2019-05-17T06:15:29.048Z,99.90
2019-05-17T06:18:06.191Z,99.90
2019-05-17T06:20:43.298Z,99.90
2019-05-17T06:23:20.412Z,99.90
2019-05-17T06:25:57.533Z,99.90
2019-05-17T06:28:34.698Z,99.90
2019-05-17T06:31:11.802Z,99.90
2019-05-17T06:33:48.945Z,99.90
2019-05-17T06:36:26.111Z,99.90
2019-05-17T06:39:04.880Z,99.90
2019-05-17T06:41:42.321Z,99.90
2019-05-17T06:44:21.610Z,99.90
2019-05-17T06:47:02.427Z,99.90
2019-05-17T06:49:37.274Z,99.90
2019-05-17T06:52:14.404Z,99.90
2019-05-17T06:54:52.475Z,99.90
2019-05-17T06:57:43.666Z,99.90
2019-05-17T07:00:23.900Z,99.90
2019-05-17T07:03:00.674Z,99.90
2019-05-17T07:05:40.387Z,99.90
2019-05-17T07:08:20.040Z,99.90
2019-05-17T07:10:56.557Z,99.90
2019-05-17T07:13:33.714Z,99.90
2019-05-17T07:16:10.847Z,99.90
2019-05-17T07:18:49.420Z,99.90
2019-05-17T07:21:26.694Z,99.90
2019-05-17T07:24:03.789Z,99.90
2019-05-17T07:26:40.942Z,99.90
2019-05-17T07:29:19.383Z,99.90
2019-05-17T07:31:56.541Z,99.90
2019-05-17T07:34:33.701Z,99.90
2019-05-17T07:37:10.749Z,99.90
2019-05-17T07:40:00.431Z,99.90
2019-05-17T07:42:26.634Z,99.90
2019-05-17T07:45:06.094Z,99.90
2019-05-17T07:47:43.197Z,99.90
2019-05-17T07:50:20.369Z,99.90
2019-05-17T07:52:57.567Z,99.90
2019-05-17T07:55:34.687Z,99.90
2019-05-17T07:58:11.796Z,99.90
2019-05-17T08:00:51.149Z,99.90
2019-05-17T08:03:29.738Z,99.90
2019-05-17T08:06:06.512Z,99.90
2019-05-17T08:08:43.713Z,99.90
2019-05-17T08:11:20.827Z,99.90
2019-05-17T08:13:59.754Z,99.90
2019-05-17T08:16:36.702Z,99.90
2019-05-17T08:19:13.795Z,99.90
2019-05-17T08:21:51.091Z,99.90
2019-05-17T08:24:30.317Z,99.90
2019-05-17T08:27:10.497Z,99.90
2019-05-17T08:29:49.732Z,99.90
2019-05-17T08:32:26.446Z,99.90
2019-05-17T08:35:04.847Z,99.90
2019-05-17T08:37:42.697Z,99.90
2019-05-17T08:40:20.189Z,99.90
2019-05-17T08:42:57.415Z,99.90
2019-05-17T08:45:34.495Z,99.90
2019-05-17T08:48:11.739Z,99.90
2019-05-17T08:50:49.582Z,99.90
2019-05-17T08:53:26.906Z,99.90
2019-05-17T08:56:03.932Z,99.90
2019-05-17T08:58:41.295Z,99.90
2019-05-17T09:01:19.568Z,99.90
2019-05-17T09:03:56.855Z,99.90
2019-05-17T09:06:33.992Z,99.90
2019-05-17T09:09:11.730Z,99.90
2019-05-17T09:11:50.132Z,99.90
2019-05-17T09:14:29.341Z,99.90
2019-05-17T09:17:06.095Z,99.90
2019-05-17T09:19:43.165Z,99.90
2019-05-17T09:22:20.860Z,99.90
2019-05-17T09:24:59.575Z,99.90
2019-05-17T09:27:39.467Z,99.90
2019-05-17T09:30:16.270Z,99.90
2019-05-17T09:32:53.990Z,99.90
2019-05-17T09:35:31.263Z,99.90
2019-05-17T09:38:10.529Z,99.90
2019-05-17T09:40:50.496Z,97.80
2019-05-17T09:43:29.551Z,96.80
2019-05-17T09:46:10.393Z,99.90
2019-05-17T09:48:47.129Z,99.50
2019-05-17T09:51:24.996Z,99.30
2019-05-17T09:54:02.618Z,96.90
2019-05-17T09:56:42.021Z,94.20
2019-05-17T09:59:20.997Z,93.20
2019-05-17T10:02:00.124Z,95.30
2019-05-17T10:04:39.481Z,93.50
2019-05-17T10:07:20.776Z,88.20
2019-05-17T10:09:59.733Z,90.40
2019-05-17T10:12:37.401Z,90.50
2019-05-17T10:15:15.039Z,93.60
2019-05-17T10:17:52.784Z,93.50
2019-05-17T10:20:30.442Z,96.10
2019-05-17T10:23:10.439Z,97.40
2019-05-17T10:25:47.517Z,98.20
2019-05-17T10:28:25.274Z,99.00
2019-05-17T10:31:02.841Z,97.20
2019-05-17T10:33:40.603Z,96.90
2019-05-17T10:36:20.274Z,97.50
2019-05-17T10:38:59.255Z,96.60
2019-05-17T10:41:36.955Z,95.40
2019-05-17T10:44:14.716Z,97.20
2019-05-17T10:46:53.510Z,97.70
2019-05-17T10:49:33.447Z,97.50
2019-05-17T10:52:11.122Z,97.80
2019-05-17T10:54:49.143Z,96.20
2019-05-17T10:57:26.875Z,98.20
2019-05-17T11:00:06.447Z,97.70
2019-05-17T11:02:45.446Z,98.00
2019-05-17T11:05:23.382Z,97.40
2019-05-17T11:08:01.209Z,97.70
2019-05-17T11:10:39.319Z,96.80
2019-05-17T11:13:17.086Z,97.60
2019-05-17T11:15:54.817Z,95.90
2019-05-17T11:18:32.575Z,97.20
2019-05-17T11:21:10.304Z,95.70
2019-05-17T11:23:47.964Z,95.40
2019-05-17T11:26:25.699Z,97.10
2019-05-17T11:29:05.894Z,96.40
2019-05-17T11:31:43.696Z,96.00
2019-05-17T11:34:25.397Z,96.70
2019-05-17T11:37:00.734Z,97.40
2019-05-17T11:39:38.464Z,97.50
2019-05-17T11:42:19.080Z,97.70
2019-05-17T11:44:58.135Z,97.40
2019-05-17T11:47:36.750Z,96.20
2019-05-17T11:50:15.371Z,96.40
2019-05-17T11:52:53.050Z,96.30
2019-05-17T11:55:31.244Z,96.00
2019-05-17T11:58:09.238Z,96.00
2019-05-17T12:00:46.999Z,96.20
2019-05-17T12:03:26.021Z,95.60
2019-05-17T12:06:04.055Z,95.40
2019-05-17T12:08:41.714Z,95.60
2019-05-17T12:11:19.606Z,95.70
2019-05-17T12:13:57.285Z,95.40
2019-05-17T12:16:35.001Z,95.80
2019-05-17T12:19:12.699Z,95.70
2019-05-17T12:21:50.460Z,96.10
2019-05-17T12:24:28.130Z,95.00
2019-05-17T12:27:05.868Z,96.20
2019-05-17T12:29:43.619Z,95.80
2019-05-17T12:32:21.496Z,95.40
2019-05-17T12:34:59.299Z,95.80
2019-05-17T12:37:37.137Z,96.70
2019-05-17T12:40:15.375Z,96.30
2019-05-17T12:42:54.730Z,95.30
2019-05-17T12:48:31.638Z,95.20
2019-05-17T12:51:09.346Z,95.20
2019-05-17T12:53:47.039Z,96.20
2019-05-17T12:56:24.752Z,96.20
2019-05-17T12:59:02.479Z,95.90
2019-05-17T13:01:40.220Z,94.90
2019-05-17T13:04:20.079Z,94.40
2019-05-17T13:06:57.894Z,94.30
2019-05-17T13:09:35.609Z,95.10
2019-05-17T13:12:13.547Z,93.70
2019-05-17T13:14:52.209Z,93.10
2019-05-17T13:17:31.583Z,93.80
2019-05-17T13:20:10.425Z,95.40
2019-05-17T13:22:48.837Z,95.60
2019-05-17T13:25:27.593Z,93.90
2019-05-17T13:28:08.655Z,95.10
2019-05-17T13:30:46.394Z,95.40
2019-05-17T13:33:24.106Z,93.10
2019-05-17T13:36:01.858Z,96.00
2019-05-17T13:38:39.630Z,96.50
2019-05-17T13:41:17.265Z,96.70
2019-05-17T13:43:55.162Z,97.20
2019-05-17T13:46:33.743Z,96.30
2019-05-17T13:49:11.572Z,95.00
2019-05-17T13:51:49.529Z,94.40
2019-05-17T13:54:27.288Z,94.30
2019-05-17T13:57:05.081Z,94.30
2019-05-17T13:59:42.847Z,94.60
2019-05-17T14:02:20.578Z,92.30
2019-05-17T14:04:58.401Z,93.70
2019-05-17T14:07:36.109Z,93.40
2019-05-17T14:10:26.201Z,93.70
2019-05-17T14:12:53.170Z,93.80
2019-05-17T14:15:30.871Z,92.40
2019-05-17T14:18:08.689Z,93.40
2019-05-17T14:20:46.318Z,93.00
2019-05-17T14:23:24.042Z,92.30
2019-05-17T14:26:01.707Z,92.40
2019-05-17T14:28:41.313Z,92.90
2019-05-17T14:31:19.777Z,92.70
2019-05-17T14:33:57.638Z,92.20
2019-05-17T14:36:36.680Z,92.10
2019-05-17T14:39:14.392Z,92.20
2019-05-17T14:41:52.402Z,91.10
2019-05-17T14:44:30.142Z,91.00
2019-05-17T14:47:09.603Z,91.40
2019-05-17T14:49:47.292Z,91.20
2019-05-17T14:52:25.204Z,91.80
2019-05-17T14:55:02.955Z,92.70
2019-05-17T14:57:42.934Z,92.10
2019-05-17T15:00:20.074Z,91.80
2019-05-17T15:02:57.837Z,90.60
2019-05-17T15:05:35.570Z,91.70
2019-05-17T15:08:13.250Z,92.20
2019-05-17T15:10:51.063Z,90.90
2019-05-17T15:13:28.802Z,91.80
2019-05-17T15:16:06.659Z,90.40
2019-05-17T15:18:44.421Z,90.30
2019-05-17T15:21:22.119Z,91.80
2019-05-17T15:24:00.998Z,90.80
2019-05-17T15:26:38.756Z,91.90
2019-05-17T15:29:16.414Z,92.40
2019-05-17T15:31:54.157Z,91.60
2019-05-17T15:34:31.875Z,92.10
2019-05-17T15:37:09.627Z,92.70
2019-05-17T15:39:47.284Z,92.10
2019-05-17T15:42:25.021Z,92.70
2019-05-17T15:45:02.938Z,92.00
2019-05-17T15:47:40.747Z,93.10
2019-05-17T15:50:20.495Z,92.20
2019-05-17T15:52:58.270Z,92.60
2019-05-17T15:55:36.020Z,92.00
2019-05-17T15:58:13.717Z,92.80
2019-05-17T16:00:51.609Z,92.70
2019-05-17T16:03:30.614Z,92.40
2019-05-17T16:06:08.356Z,92.90
2019-05-17T16:08:46.111Z,93.10
2019-05-17T16:11:23.869Z,91.90
2019-05-17T16:14:01.607Z,91.90
2019-05-17T16:16:39.325Z,91.80
2019-05-17T16:19:17.032Z,92.90
2019-05-17T16:21:55.743Z,92.40
2019-05-17T16:24:33.661Z,91.90
2019-05-17T16:27:11.421Z,92.00
2019-05-17T16:29:49.126Z,92.00
2019-05-17T16:32:26.832Z,92.00
2019-05-17T16:35:05.947Z,91.60
2019-05-17T16:37:43.857Z,90.90
2019-05-17T16:40:23.058Z,90.70
2019-05-17T16:43:15.775Z,90.90
2019-05-17T16:45:43.060Z,91.40
2019-05-17T16:48:20.842Z,91.80
2019-05-17T16:50:58.539Z,91.40
2019-05-17T16:53:36.341Z,91.90
2019-05-17T16:56:14.578Z,92.10
2019-05-17T16:58:52.316Z,93.00
2019-05-17T17:01:29.983Z,91.90
2019-05-17T17:04:07.730Z,90.20
2019-05-17T17:06:45.423Z,90.40
2019-05-17T17:09:23.234Z,91.50
2019-05-17T17:12:01.316Z,91.60
2019-05-17T17:14:39.163Z,90.70
2019-05-17T17:17:16.946Z,91.10
2019-05-17T17:19:54.712Z,91.10
2019-05-17T17:22:32.451Z,91.60
2019-05-17T17:25:10.155Z,90.20
2019-05-17T17:27:47.991Z,90.60
2019-05-17T17:30:26.945Z,90.60
2019-05-17T17:33:04.673Z,90.90
2019-05-17T17:35:42.394Z,90.60
2019-05-17T17:38:20.446Z,90.70
2019-05-17T17:40:58.194Z,91.00
2019-05-17T17:43:35.891Z,90.90
2019-05-17T17:46:13.638Z,92.20
2019-05-17T17:48:51.979Z,92.30
2019-05-17T17:51:29.724Z,92.30
2019-05-17T17:54:07.480Z,93.00
2019-05-17T17:56:46.698Z,93.10
2019-05-17T17:59:24.439Z,94.10
2019-05-17T18:02:02.249Z,94.20
2019-05-17T18:04:39.924Z,94.30
2019-05-17T18:07:17.759Z,94.30
2019-05-17T18:10:13.104Z,94.50
2019-05-17T18:13:02.874Z,95.00
2019-05-17T18:15:44.664Z,95.20
2019-05-17T18:18:22.395Z,95.40
2019-05-17T18:21:00.116Z,96.70
2019-05-17T18:23:37.905Z,97.00
2019-05-17T18:26:15.598Z,97.20
2019-05-17T18:28:53.340Z,98.10
2019-05-17T18:31:32.057Z,98.60
2019-05-17T18:34:16.979Z,99.10
2019-05-17T18:36:56.964Z,99.40
2019-05-17T18:39:34.680Z,99.60
2019-05-17T18:42:11.770Z,99.90
2019-05-17T18:44:49.497Z,99.90
2019-05-17T18:47:27.279Z,99.90
2019-05-17T18:50:05.490Z,99.90
2019-05-17T18:52:43.261Z,99.90
2019-05-17T18:55:20.368Z,99.90
2019-05-17T18:57:57.566Z,99.90
2019-05-17T19:00:34.771Z,99.90
2019-05-17T19:03:11.921Z,99.90
2019-05-17T19:05:49.104Z,99.90
2019-05-17T19:08:26.808Z,99.90
2019-05-17T19:11:03.935Z,99.90
2019-05-17T19:13:41.059Z,99.90
2019-05-17T19:16:18.800Z,99.90
2019-05-17T19:18:56.456Z,99.90
2019-05-17T19:21:41.096Z,99.90
2019-05-17T19:24:18.853Z,99.90
2019-05-17T19:26:56.043Z,99.90
2019-05-17T19:29:33.289Z,99.90
2019-05-17T19:32:13.981Z,99.90
2019-05-17T19:34:51.313Z,99.90
2019-05-17T19:37:28.644Z,99.90
2019-05-17T19:40:08.819Z,99.90
2019-05-17T19:42:46.031Z,99.90
2019-05-17T19:45:23.717Z,99.90
2019-05-17T19:48:03.201Z,99.90
2019-05-17T19:50:40.376Z,99.90
2019-05-17T19:53:21.162Z,99.90
2019-05-17T19:55:58.274Z,99.90
2019-05-17T19:58:35.489Z,99.90
2019-05-17T20:01:13.932Z,99.90
2019-05-17T20:03:54.491Z,99.90
2019-05-17T20:06:31.651Z,99.90
2019-05-17T20:09:09.811Z,99.90
2019-05-17T20:11:47.339Z,99.90
2019-05-17T20:14:24.550Z,99.90
2019-05-17T20:17:06.456Z,99.90
2019-05-17T20:19:41.991Z,99.90
2019-05-17T20:22:19.165Z,99.90
2019-05-17T20:24:57.392Z,99.90
2019-05-17T20:27:34.558Z,99.90
2019-05-17T20:30:11.698Z,99.90
2019-05-17T20:32:48.827Z,99.90
2019-05-17T20:35:25.974Z,99.90
2019-05-17T20:38:03.130Z,99.90
2019-05-17T20:40:40.265Z,99.90
2019-05-17T20:43:18.316Z,99.90
2019-05-17T20:45:55.521Z,99.90
2019-05-17T20:48:32.691Z,99.90
2019-05-17T20:51:09.841Z,99.90
2019-05-17T20:53:46.996Z,99.90
2019-05-17T20:56:32.665Z,99.90
2019-05-17T20:59:03.046Z,99.90
2019-05-17T21:01:40.179Z,99.90
2019-05-17T21:04:17.335Z,99.90
2019-05-17T21:06:54.481Z,99.90
2019-05-17T21:09:31.667Z,99.90
2019-05-17T21:12:08.898Z,99.90
2019-05-17T21:14:51.764Z,99.90
2019-05-17T21:17:28.897Z,99.90
2019-05-17T21:20:07.657Z,99.90
2019-05-17T21:22:44.974Z,99.90
2019-05-17T21:25:22.111Z,99.90
2019-05-17T21:27:59.245Z,99.90
2019-05-17T21:30:36.385Z,99.90
2019-05-17T21:33:13.506Z,99.90
2019-05-17T21:35:50.617Z,99.90
2019-05-17T21:38:27.738Z,99.90
2019-05-17T21:41:04.907Z,99.90
2019-05-17T21:43:42.030Z,99.90
2019-05-17T21:46:19.162Z,99.90
2019-05-17T21:48:57.923Z,99.90
2019-05-17T21:51:35.051Z,99.90
2019-05-17T21:54:12.167Z,99.90
2019-05-17T21:56:49.336Z,99.90
2019-05-17T21:59:26.500Z,99.90
2019-05-17T22:02:03.899Z,99.90
2019-05-17T22:04:41.388Z,99.90
2019-05-17T22:07:18.510Z,99.90
2019-05-17T22:09:55.604Z,99.90
2019-05-17T22:12:32.743Z,99.90
2019-05-17T22:15:09.751Z,99.90
2019-05-17T22:17:46.933Z,99.90
2019-05-17T22:20:24.019Z,99.90
2019-05-17T22:23:01.165Z,99.90
2019-05-17T22:25:38.267Z,99.90
2019-05-17T22:28:16.516Z,99.90
2019-05-17T22:31:02.443Z,99.90
2019-05-17T22:33:39.618Z,99.90
2019-05-17T22:36:16.706Z,99.90
2019-05-17T22:38:53.853Z,99.90
2019-05-17T22:41:30.976Z,99.90
2019-05-17T22:44:08.131Z,99.90
2019-05-17T22:46:45.217Z,99.90
2019-05-17T22:49:22.761Z,99.90
2019-05-17T22:52:06.294Z,99.90
2019-05-17T22:54:43.924Z,99.90
2019-05-17T22:57:21.406Z,99.90
2019-05-17T23:00:01.323Z,99.90
2019-05-17T23:02:38.972Z,99.90
2019-05-17T23:05:21.604Z,99.90
2019-05-17T23:07:56.952Z,99.90
2019-05-17T23:10:35.253Z,99.90
2019-05-17T23:13:12.671Z,99.90
2019-05-17T23:16:00.455Z,99.90
2019-05-17T23:18:37.655Z,99.90
2019-05-17T23:21:14.906Z,99.90
2019-05-17T23:23:52.122Z,99.90
2019-05-17T23:26:29.439Z,99.90
2019-05-17T23:29:06.871Z,99.90
2019-05-17T23:31:44.287Z,99.90
2019-05-17T23:34:21.686Z,99.90
2019-05-17T23:36:59.835Z,99.90
2019-05-17T23:39:37.270Z,99.90
2019-05-17T23:42:14.918Z,99.90
2019-05-17T23:44:52.248Z,99.90
2019-05-17T23:47:29.597Z,99.90
2019-05-17T23:50:07.605Z,99.90
2019-05-17T23:52:44.745Z,99.90
2019-05-17T23:55:21.865Z,99.90
2019-05-17T23:57:59.030Z,99.90
